sensor_id;sensor_type;location;lat;lon;timestamp;P1;durP1;ratioP1;P2;durP2;ratioP2
47519;SDS011;33252;48.122;11.538;2023-05-27T00:01:50;11.63;;;7.57;;
47519;SDS011;33252;48.122;11.538;2023-05-27T00:04:16;12.50;;;7.78;;
47519;SDS011;33252;48.122;11.538;2023-05-27T00:06:41;14.98;;;8.35;;
47519;SDS011;33252;48.122;11.538;2023-05-27T00:09:07;12.20;;;7.90;;
47519;SDS011;33252;48.122;11.538;2023-05-27T00:11:33;11.35;;;7.75;;
47519;SDS011;33252;48.122;11.538;2023-05-27T00:13:58;12.32;;;8.05;;
47519;SDS011;33252;48.122;11.538;2023-05-27T00:16:24;13.38;;;8.40;;
47519;SDS011;33252;48.122;11.538;2023-05-27T00:18:50;12.45;;;7.53;;
47519;SDS011;33252;48.122;11.538;2023-05-27T00:21:17;11.43;;;8.00;;
47519;SDS011;33252;48.122;11.538;2023-05-27T00:23:46;12.20;;;9.10;;
47519;SDS011;33252;48.122;11.538;2023-05-27T00:26:12;12.07;;;8.63;;
47519;SDS011;33252;48.122;11.538;2023-05-27T00:28:37;11.88;;;8.15;;
47519;SDS011;33252;48.122;11.538;2023-05-27T00:31:03;15.63;;;8.52;;
47519;SDS011;33252;48.122;11.538;2023-05-27T00:33:29;15.73;;;8.63;;
47519;SDS011;33252;48.122;11.538;2023-05-27T00:35:54;16.48;;;8.73;;
47519;SDS011;33252;48.122;11.538;2023-05-27T00:38:20;13.18;;;8.82;;
47519;SDS011;33252;48.122;11.538;2023-05-27T00:40:46;15.68;;;9.30;;
47519;SDS011;33252;48.122;11.538;2023-05-27T00:43:14;15.13;;;9.10;;
47519;SDS011;33252;48.122;11.538;2023-05-27T00:45:39;14.77;;;8.93;;
47519;SDS011;33252;48.122;11.538;2023-05-27T00:48:05;13.55;;;8.88;;
47519;SDS011;33252;48.122;11.538;2023-05-27T00:50:31;14.65;;;8.95;;
47519;SDS011;33252;48.122;11.538;2023-05-27T00:52:57;16.33;;;9.63;;
47519;SDS011;33252;48.122;11.538;2023-05-27T00:55:23;13.43;;;7.93;;
47519;SDS011;33252;48.122;11.538;2023-05-27T00:57:49;13.43;;;9.05;;
47519;SDS011;33252;48.122;11.538;2023-05-27T01:00:15;12.52;;;9.40;;
47519;SDS011;33252;48.122;11.538;2023-05-27T01:02:41;15.00;;;8.45;;
47519;SDS011;33252;48.122;11.538;2023-05-27T01:05:11;13.85;;;8.73;;
47519;SDS011;33252;48.122;11.538;2023-05-27T01:13:16;15.00;;;9.40;;
47519;SDS011;33252;48.122;11.538;2023-05-27T01:15:54;11.90;;;8.48;;
47519;SDS011;33252;48.122;11.538;2023-05-27T01:18:24;11.27;;;9.15;;
47519;SDS011;33252;48.122;11.538;2023-05-27T01:20:58;13.80;;;9.25;;
47519;SDS011;33252;48.122;11.538;2023-05-27T01:23:27;13.15;;;8.80;;
47519;SDS011;33252;48.122;11.538;2023-05-27T01:25:53;11.95;;;8.23;;
47519;SDS011;33252;48.122;11.538;2023-05-27T01:28:19;24.90;;;10.13;;
47519;SDS011;33252;48.122;11.538;2023-05-27T01:30:44;14.00;;;9.73;;
47519;SDS011;33252;48.122;11.538;2023-05-27T01:33:12;14.80;;;9.23;;
47519;SDS011;33252;48.122;11.538;2023-05-27T01:35:43;15.48;;;10.05;;
47519;SDS011;33252;48.122;11.538;2023-05-27T01:38:16;14.82;;;9.95;;
47519;SDS011;33252;48.122;11.538;2023-05-27T01:40:44;13.10;;;9.48;;
47519;SDS011;33252;48.122;11.538;2023-05-27T01:43:13;16.10;;;10.40;;
47519;SDS011;33252;48.122;11.538;2023-05-27T01:45:40;13.02;;;9.68;;
47519;SDS011;33252;48.122;11.538;2023-05-27T01:48:07;13.20;;;9.45;;
47519;SDS011;33252;48.122;11.538;2023-05-27T01:50:34;13.13;;;9.43;;
47519;SDS011;33252;48.122;11.538;2023-05-27T01:53:00;14.77;;;9.70;;
47519;SDS011;33252;48.122;11.538;2023-05-27T01:55:28;13.52;;;9.75;;
47519;SDS011;33252;48.122;11.538;2023-05-27T01:57:55;12.75;;;10.15;;
47519;SDS011;33252;48.122;11.538;2023-05-27T02:00:21;14.50;;;9.55;;
47519;SDS011;33252;48.122;11.538;2023-05-27T02:02:46;16.25;;;10.35;;
47519;SDS011;33252;48.122;11.538;2023-05-27T02:05:12;14.95;;;9.48;;
47519;SDS011;33252;48.122;11.538;2023-05-27T02:07:38;13.20;;;9.80;;
47519;SDS011;33252;48.122;11.538;2023-05-27T02:10:04;18.15;;;10.20;;
47519;SDS011;33252;48.122;11.538;2023-05-27T02:12:30;14.30;;;8.88;;
47519;SDS011;33252;48.122;11.538;2023-05-27T02:14:56;15.88;;;9.15;;
47519;SDS011;33252;48.122;11.538;2023-05-27T02:17:21;14.25;;;9.20;;
47519;SDS011;33252;48.122;11.538;2023-05-27T02:19:49;16.13;;;9.68;;
47519;SDS011;33252;48.122;11.538;2023-05-27T02:22:15;14.80;;;10.02;;
47519;SDS011;33252;48.122;11.538;2023-05-27T02:24:42;13.10;;;9.50;;
47519;SDS011;33252;48.122;11.538;2023-05-27T02:27:07;16.95;;;10.25;;
47519;SDS011;33252;48.122;11.538;2023-05-27T02:29:33;15.68;;;10.07;;
47519;SDS011;33252;48.122;11.538;2023-05-27T02:31:59;12.27;;;9.52;;
47519;SDS011;33252;48.122;11.538;2023-05-27T02:34:24;15.50;;;9.82;;
47519;SDS011;33252;48.122;11.538;2023-05-27T02:36:50;12.15;;;8.70;;
47519;SDS011;33252;48.122;11.538;2023-05-27T02:39:16;14.15;;;10.00;;
47519;SDS011;33252;48.122;11.538;2023-05-27T02:41:42;17.65;;;10.23;;
47519;SDS011;33252;48.122;11.538;2023-05-27T02:44:08;12.77;;;9.52;;
47519;SDS011;33252;48.122;11.538;2023-05-27T02:46:33;12.05;;;9.73;;
47519;SDS011;33252;48.122;11.538;2023-05-27T02:48:59;13.73;;;9.48;;
47519;SDS011;33252;48.122;11.538;2023-05-27T02:51:25;13.13;;;9.25;;
47519;SDS011;33252;48.122;11.538;2023-05-27T02:53:53;12.00;;;8.93;;
47519;SDS011;33252;48.122;11.538;2023-05-27T02:56:18;13.48;;;8.90;;
47519;SDS011;33252;48.122;11.538;2023-05-27T02:58:44;13.43;;;9.40;;
47519;SDS011;33252;48.122;11.538;2023-05-27T03:01:10;13.20;;;9.10;;
47519;SDS011;33252;48.122;11.538;2023-05-27T03:03:36;12.90;;;9.45;;
47519;SDS011;33252;48.122;11.538;2023-05-27T03:06:01;14.10;;;10.05;;
47519;SDS011;33252;48.122;11.538;2023-05-27T03:08:28;15.32;;;9.10;;
47519;SDS011;33252;48.122;11.538;2023-05-27T03:10:53;15.73;;;10.43;;
47519;SDS011;33252;48.122;11.538;2023-05-27T03:13:19;15.27;;;9.73;;
47519;SDS011;33252;48.122;11.538;2023-05-27T03:15:45;13.20;;;8.30;;
47519;SDS011;33252;48.122;11.538;2023-05-27T03:18:10;16.17;;;10.65;;
47519;SDS011;33252;48.122;11.538;2023-05-27T03:20:36;11.77;;;8.93;;
47519;SDS011;33252;48.122;11.538;2023-05-27T03:23:02;17.02;;;9.68;;
47519;SDS011;33252;48.122;11.538;2023-05-27T03:25:27;15.60;;;9.20;;
47519;SDS011;33252;48.122;11.538;2023-05-27T03:27:54;12.57;;;9.30;;
47519;SDS011;33252;48.122;11.538;2023-05-27T03:30:19;13.32;;;10.02;;
47519;SDS011;33252;48.122;11.538;2023-05-27T03:32:45;17.05;;;9.73;;
47519;SDS011;33252;48.122;11.538;2023-05-27T03:35:11;11.70;;;9.70;;
47519;SDS011;33252;48.122;11.538;2023-05-27T03:37:37;15.45;;;8.93;;
47519;SDS011;33252;48.122;11.538;2023-05-27T03:40:02;14.75;;;8.88;;
47519;SDS011;33252;48.122;11.538;2023-05-27T03:42:29;13.35;;;9.00;;
47519;SDS011;33252;48.122;11.538;2023-05-27T03:44:55;11.00;;;8.82;;
47519;SDS011;33252;48.122;11.538;2023-05-27T03:47:20;15.25;;;9.30;;
47519;SDS011;33252;48.122;11.538;2023-05-27T03:49:47;11.57;;;9.20;;
47519;SDS011;33252;48.122;11.538;2023-05-27T03:52:13;11.38;;;9.43;;
47519;SDS011;33252;48.122;11.538;2023-05-27T03:54:39;17.38;;;10.73;;
47519;SDS011;33252;48.122;11.538;2023-05-27T03:57:06;14.02;;;9.32;;
47519;SDS011;33252;48.122;11.538;2023-05-27T03:59:34;13.18;;;9.50;;
47519;SDS011;33252;48.122;11.538;2023-05-27T04:02:00;14.38;;;8.52;;
47519;SDS011;33252;48.122;11.538;2023-05-27T04:04:25;13.90;;;8.90;;
47519;SDS011;33252;48.122;11.538;2023-05-27T04:06:51;13.75;;;9.45;;
47519;SDS011;33252;48.122;11.538;2023-05-27T04:09:18;13.43;;;8.77;;
47519;SDS011;33252;48.122;11.538;2023-05-27T04:11:43;13.07;;;9.55;;
47519;SDS011;33252;48.122;11.538;2023-05-27T04:14:09;12.05;;;9.63;;
47519;SDS011;33252;48.122;11.538;2023-05-27T04:16:35;17.33;;;9.10;;
47519;SDS011;33252;48.122;11.538;2023-05-27T04:19:01;14.40;;;9.00;;
47519;SDS011;33252;48.122;11.538;2023-05-27T04:21:27;15.25;;;8.95;;
47519;SDS011;33252;48.122;11.538;2023-05-27T04:23:53;14.30;;;9.75;;
47519;SDS011;33252;48.122;11.538;2023-05-27T04:26:19;14.52;;;8.48;;
47519;SDS011;33252;48.122;11.538;2023-05-27T04:28:45;15.75;;;9.65;;
47519;SDS011;33252;48.122;11.538;2023-05-27T04:31:12;15.32;;;9.98;;
47519;SDS011;33252;48.122;11.538;2023-05-27T04:33:41;15.82;;;9.90;;
47519;SDS011;33252;48.122;11.538;2023-05-27T04:36:07;14.63;;;9.27;;
47519;SDS011;33252;48.122;11.538;2023-05-27T04:38:34;13.18;;;8.90;;
47519;SDS011;33252;48.122;11.538;2023-05-27T04:40:59;15.70;;;8.55;;
47519;SDS011;33252;48.122;11.538;2023-05-27T04:43:25;12.85;;;9.50;;
47519;SDS011;33252;48.122;11.538;2023-05-27T04:45:54;14.65;;;9.48;;
47519;SDS011;33252;48.122;11.538;2023-05-27T04:48:21;14.07;;;9.63;;
47519;SDS011;33252;48.122;11.538;2023-05-27T04:50:48;12.07;;;8.55;;
47519;SDS011;33252;48.122;11.538;2023-05-27T04:53:13;11.43;;;8.50;;
47519;SDS011;33252;48.122;11.538;2023-05-27T04:55:41;14.18;;;9.18;;
47519;SDS011;33252;48.122;11.538;2023-05-27T04:58:06;11.20;;;8.02;;
47519;SDS011;33252;48.122;11.538;2023-05-27T05:00:32;12.68;;;8.60;;
47519;SDS011;33252;48.122;11.538;2023-05-27T05:03:14;14.88;;;9.52;;
47519;SDS011;33252;48.122;11.538;2023-05-27T05:05:47;14.73;;;8.70;;
47519;SDS011;33252;48.122;11.538;2023-05-27T05:08:19;14.13;;;9.63;;
47519;SDS011;33252;48.122;11.538;2023-05-27T05:10:48;12.15;;;8.10;;
47519;SDS011;33252;48.122;11.538;2023-05-27T05:13:16;14.75;;;9.05;;
47519;SDS011;33252;48.122;11.538;2023-05-27T05:15:42;14.10;;;8.63;;
47519;SDS011;33252;48.122;11.538;2023-05-27T05:18:10;12.18;;;8.25;;
47519;SDS011;33252;48.122;11.538;2023-05-27T05:20:36;15.50;;;8.40;;
47519;SDS011;33252;48.122;11.538;2023-05-27T05:23:02;12.88;;;7.80;;
47519;SDS011;33252;48.122;11.538;2023-05-27T05:25:28;11.43;;;8.57;;
47519;SDS011;33252;48.122;11.538;2023-05-27T05:27:55;11.98;;;7.10;;
47519;SDS011;33252;48.122;11.538;2023-05-27T05:30:21;12.65;;;8.70;;
47519;SDS011;33252;48.122;11.538;2023-05-27T05:32:47;14.45;;;8.45;;
47519;SDS011;33252;48.122;11.538;2023-05-27T05:35:13;13.95;;;7.50;;
47519;SDS011;33252;48.122;11.538;2023-05-27T05:37:38;11.63;;;7.78;;
47519;SDS011;33252;48.122;11.538;2023-05-27T05:40:04;11.82;;;7.50;;
47519;SDS011;33252;48.122;11.538;2023-05-27T05:42:30;12.30;;;7.38;;
47519;SDS011;33252;48.122;11.538;2023-05-27T05:44:56;11.05;;;7.40;;
47519;SDS011;33252;48.122;11.538;2023-05-27T05:47:22;12.07;;;7.47;;
47519;SDS011;33252;48.122;11.538;2023-05-27T05:49:47;11.80;;;8.07;;
47519;SDS011;33252;48.122;11.538;2023-05-27T05:52:13;15.10;;;8.57;;
47519;SDS011;33252;48.122;11.538;2023-05-27T05:54:39;11.55;;;7.57;;
47519;SDS011;33252;48.122;11.538;2023-05-27T05:57:04;10.40;;;6.93;;
47519;SDS011;33252;48.122;11.538;2023-05-27T05:59:30;10.35;;;6.93;;
47519;SDS011;33252;48.122;11.538;2023-05-27T06:01:56;11.57;;;7.00;;
47519;SDS011;33252;48.122;11.538;2023-05-27T06:04:22;10.27;;;6.97;;
47519;SDS011;33252;48.122;11.538;2023-05-27T06:06:48;13.07;;;6.85;;
47519;SDS011;33252;48.122;11.538;2023-05-27T06:09:13;11.50;;;6.90;;
47519;SDS011;33252;48.122;11.538;2023-05-27T06:11:39;11.18;;;6.40;;
47519;SDS011;33252;48.122;11.538;2023-05-27T06:14:05;15.88;;;8.15;;
47519;SDS011;33252;48.122;11.538;2023-05-27T06:16:32;11.80;;;6.65;;
47519;SDS011;33252;48.122;11.538;2023-05-27T06:18:58;12.05;;;7.20;;
47519;SDS011;33252;48.122;11.538;2023-05-27T06:21:23;11.93;;;7.20;;
47519;SDS011;33252;48.122;11.538;2023-05-27T06:23:49;12.82;;;7.95;;
47519;SDS011;33252;48.122;11.538;2023-05-27T06:26:15;14.65;;;8.43;;
47519;SDS011;33252;48.122;11.538;2023-05-27T06:28:40;11.98;;;6.43;;
47519;SDS011;33252;48.122;11.538;2023-05-27T06:31:06;10.65;;;6.72;;
47519;SDS011;33252;48.122;11.538;2023-05-27T06:33:31;11.60;;;7.15;;
47519;SDS011;33252;48.122;11.538;2023-05-27T06:35:57;10.13;;;6.72;;
47519;SDS011;33252;48.122;11.538;2023-05-27T06:38:23;10.45;;;6.53;;
47519;SDS011;33252;48.122;11.538;2023-05-27T06:40:48;14.05;;;7.13;;
47519;SDS011;33252;48.122;11.538;2023-05-27T06:43:14;12.68;;;6.82;;
47519;SDS011;33252;48.122;11.538;2023-05-27T06:45:40;16.80;;;7.97;;
47519;SDS011;33252;48.122;11.538;2023-05-27T06:48:06;11.48;;;6.18;;
47519;SDS011;33252;48.122;11.538;2023-05-27T06:50:32;9.45;;;6.60;;
47519;SDS011;33252;48.122;11.538;2023-05-27T06:52:58;13.07;;;6.13;;
47519;SDS011;33252;48.122;11.538;2023-05-27T06:55:24;14.25;;;6.30;;
47519;SDS011;33252;48.122;11.538;2023-05-27T06:57:50;11.60;;;5.68;;
47519;SDS011;33252;48.122;11.538;2023-05-27T07:00:16;11.70;;;6.28;;
47519;SDS011;33252;48.122;11.538;2023-05-27T07:02:41;11.50;;;5.85;;
47519;SDS011;33252;48.122;11.538;2023-05-27T07:05:07;10.23;;;6.32;;
47519;SDS011;33252;48.122;11.538;2023-05-27T07:07:33;10.15;;;5.75;;
47519;SDS011;33252;48.122;11.538;2023-05-27T07:09:58;12.65;;;6.35;;
47519;SDS011;33252;48.122;11.538;2023-05-27T07:12:24;11.88;;;7.07;;
47519;SDS011;33252;48.122;11.538;2023-05-27T07:14:50;7.72;;;5.47;;
47519;SDS011;33252;48.122;11.538;2023-05-27T07:17:16;10.20;;;5.10;;
47519;SDS011;33252;48.122;11.538;2023-05-27T07:19:41;9.63;;;6.22;;
47519;SDS011;33252;48.122;11.538;2023-05-27T07:22:07;9.52;;;5.53;;
47519;SDS011;33252;48.122;11.538;2023-05-27T07:24:32;16.98;;;5.85;;
47519;SDS011;33252;48.122;11.538;2023-05-27T07:26:58;14.07;;;5.38;;
47519;SDS011;33252;48.122;11.538;2023-05-27T07:29:24;12.15;;;5.60;;
47519;SDS011;33252;48.122;11.538;2023-05-27T07:31:50;8.70;;;6.25;;
47519;SDS011;33252;48.122;11.538;2023-05-27T07:34:16;12.15;;;5.43;;
47519;SDS011;33252;48.122;11.538;2023-05-27T07:36:41;13.55;;;4.95;;
47519;SDS011;33252;48.122;11.538;2023-05-27T07:39:07;10.77;;;5.40;;
47519;SDS011;33252;48.122;11.538;2023-05-27T07:41:33;9.82;;;4.88;;
47519;SDS011;33252;48.122;11.538;2023-05-27T07:43:58;11.98;;;5.43;;
47519;SDS011;33252;48.122;11.538;2023-05-27T07:46:24;9.60;;;4.80;;
47519;SDS011;33252;48.122;11.538;2023-05-27T07:48:49;9.00;;;5.32;;
47519;SDS011;33252;48.122;11.538;2023-05-27T07:51:15;12.23;;;5.63;;
47519;SDS011;33252;48.122;11.538;2023-05-27T07:53:41;7.38;;;4.97;;
47519;SDS011;33252;48.122;11.538;2023-05-27T07:56:07;12.55;;;5.15;;
47519;SDS011;33252;48.122;11.538;2023-05-27T07:58:32;11.40;;;4.97;;
47519;SDS011;33252;48.122;11.538;2023-05-27T08:00:58;12.73;;;4.32;;
47519;SDS011;33252;48.122;11.538;2023-05-27T08:03:24;11.35;;;5.30;;
47519;SDS011;33252;48.122;11.538;2023-05-27T08:05:50;11.07;;;5.47;;
47519;SDS011;33252;48.122;11.538;2023-05-27T08:08:15;9.95;;;4.30;;
47519;SDS011;33252;48.122;11.538;2023-05-27T08:10:41;11.38;;;6.22;;
47519;SDS011;33252;48.122;11.538;2023-05-27T08:13:09;10.68;;;5.25;;
47519;SDS011;33252;48.122;11.538;2023-05-27T08:15:35;10.02;;;4.65;;
47519;SDS011;33252;48.122;11.538;2023-05-27T08:18:00;11.05;;;5.70;;
47519;SDS011;33252;48.122;11.538;2023-05-27T08:20:26;9.85;;;4.88;;
47519;SDS011;33252;48.122;11.538;2023-05-27T08:22:52;12.57;;;4.95;;
47519;SDS011;33252;48.122;11.538;2023-05-27T08:25:18;8.60;;;5.00;;
47519;SDS011;33252;48.122;11.538;2023-05-27T08:27:45;16.50;;;6.15;;
47519;SDS011;33252;48.122;11.538;2023-05-27T08:30:16;8.70;;;5.10;;
47519;SDS011;33252;48.122;11.538;2023-05-27T08:32:42;10.38;;;4.78;;
47519;SDS011;33252;48.122;11.538;2023-05-27T08:35:08;14.23;;;5.90;;
47519;SDS011;33252;48.122;11.538;2023-05-27T08:37:35;14.55;;;5.80;;
47519;SDS011;33252;48.122;11.538;2023-05-27T08:40:01;12.80;;;5.78;;
47519;SDS011;33252;48.122;11.538;2023-05-27T08:42:29;9.60;;;5.55;;
47519;SDS011;33252;48.122;11.538;2023-05-27T08:44:55;10.32;;;5.50;;
47519;SDS011;33252;48.122;11.538;2023-05-27T08:47:21;12.02;;;5.57;;
47519;SDS011;33252;48.122;11.538;2023-05-27T08:49:46;14.50;;;5.72;;
47519;SDS011;33252;48.122;11.538;2023-05-27T08:52:14;13.07;;;6.40;;
47519;SDS011;33252;48.122;11.538;2023-05-27T08:54:44;16.80;;;5.43;;
47519;SDS011;33252;48.122;11.538;2023-05-27T08:57:11;9.68;;;5.55;;
47519;SDS011;33252;48.122;11.538;2023-05-27T08:59:38;10.45;;;5.65;;
47519;SDS011;33252;48.122;11.538;2023-05-27T09:02:05;11.07;;;6.45;;
47519;SDS011;33252;48.122;11.538;2023-05-27T09:04:39;9.52;;;5.30;;
47519;SDS011;33252;48.122;11.538;2023-05-27T09:07:05;8.60;;;6.63;;
47519;SDS011;33252;48.122;11.538;2023-05-27T09:09:31;14.57;;;5.75;;
47519;SDS011;33252;48.122;11.538;2023-05-27T09:12:03;10.05;;;5.70;;
47519;SDS011;33252;48.122;11.538;2023-05-27T09:14:31;11.75;;;6.80;;
47519;SDS011;33252;48.122;11.538;2023-05-27T09:16:57;10.65;;;5.72;;
47519;SDS011;33252;48.122;11.538;2023-05-27T09:19:29;12.55;;;6.55;;
47519;SDS011;33252;48.122;11.538;2023-05-27T09:21:55;11.15;;;6.22;;
47519;SDS011;33252;48.122;11.538;2023-05-27T09:24:24;9.55;;;5.25;;
47519;SDS011;33252;48.122;11.538;2023-05-27T09:26:50;13.70;;;5.70;;
47519;SDS011;33252;48.122;11.538;2023-05-27T09:29:18;10.57;;;6.28;;
47519;SDS011;33252;48.122;11.538;2023-05-27T09:31:44;9.85;;;5.68;;
47519;SDS011;33252;48.122;11.538;2023-05-27T09:34:13;9.30;;;6.35;;
47519;SDS011;33252;48.122;11.538;2023-05-27T09:36:44;12.93;;;5.97;;
47519;SDS011;33252;48.122;11.538;2023-05-27T09:39:10;12.50;;;6.03;;
47519;SDS011;33252;48.122;11.538;2023-05-27T09:41:37;11.68;;;6.38;;
47519;SDS011;33252;48.122;11.538;2023-05-27T09:44:04;11.65;;;6.70;;
47519;SDS011;33252;48.122;11.538;2023-05-27T09:46:31;14.15;;;6.43;;
47519;SDS011;33252;48.122;11.538;2023-05-27T09:48:58;10.27;;;6.45;;
47519;SDS011;33252;48.122;11.538;2023-05-27T09:51:25;12.27;;;5.50;;
47519;SDS011;33252;48.122;11.538;2023-05-27T09:53:55;13.60;;;6.22;;
47519;SDS011;33252;48.122;11.538;2023-05-27T09:56:25;11.02;;;6.47;;
47519;SDS011;33252;48.122;11.538;2023-05-27T09:58:55;11.75;;;5.43;;
47519;SDS011;33252;48.122;11.538;2023-05-27T10:01:24;13.40;;;6.35;;
47519;SDS011;33252;48.122;11.538;2023-05-27T10:03:53;10.32;;;6.30;;
47519;SDS011;33252;48.122;11.538;2023-05-27T10:06:19;11.02;;;6.15;;
47519;SDS011;33252;48.122;11.538;2023-05-27T10:08:46;12.57;;;6.82;;
47519;SDS011;33252;48.122;11.538;2023-05-27T10:11:12;8.77;;;5.43;;
47519;SDS011;33252;48.122;11.538;2023-05-27T10:13:38;9.93;;;5.95;;
47519;SDS011;33252;48.122;11.538;2023-05-27T10:16:05;9.43;;;5.72;;
47519;SDS011;33252;48.122;11.538;2023-05-27T10:18:31;10.75;;;6.90;;
47519;SDS011;33252;48.122;11.538;2023-05-27T10:20:59;12.75;;;6.05;;
47519;SDS011;33252;48.122;11.538;2023-05-27T10:23:29;9.82;;;6.07;;
47519;SDS011;33252;48.122;11.538;2023-05-27T10:28:25;11.43;;;6.03;;
47519;SDS011;33252;48.122;11.538;2023-05-27T10:33:31;12.48;;;6.32;;
47519;SDS011;33252;48.122;11.538;2023-05-27T10:36:57;9.48;;;5.22;;
47519;SDS011;33252;48.122;11.538;2023-05-27T10:39:04;15.90;;;6.75;;
47519;SDS011;33252;48.122;11.538;2023-05-27T10:42:05;8.30;;;5.20;;
47519;SDS011;33252;48.122;11.538;2023-05-27T10:44:34;8.50;;;5.80;;
47519;SDS011;33252;48.122;11.538;2023-05-27T10:47:08;11.05;;;6.15;;
47519;SDS011;33252;48.122;11.538;2023-05-27T10:49:45;6.28;;;5.25;;
47519;SDS011;33252;48.122;11.538;2023-05-27T10:52:12;8.88;;;5.43;;
47519;SDS011;33252;48.122;11.538;2023-05-27T10:54:44;11.73;;;6.50;;
47519;SDS011;33252;48.122;11.538;2023-05-27T10:57:12;11.20;;;5.93;;
47519;SDS011;33252;48.122;11.538;2023-05-27T10:59:48;13.32;;;5.63;;
47519;SDS011;33252;48.122;11.538;2023-05-27T11:02:18;8.50;;;5.57;;
47519;SDS011;33252;48.122;11.538;2023-05-27T11:04:45;8.57;;;6.07;;
47519;SDS011;33252;48.122;11.538;2023-05-27T11:07:17;9.55;;;5.28;;
47519;SDS011;33252;48.122;11.538;2023-05-27T11:12:14;10.52;;;6.38;;
47519;SDS011;33252;48.122;11.538;2023-05-27T11:14:47;10.98;;;5.93;;
47519;SDS011;33252;48.122;11.538;2023-05-27T11:17:14;8.57;;;5.57;;
47519;SDS011;33252;48.122;11.538;2023-05-27T11:19:41;8.38;;;5.80;;
47519;SDS011;33252;48.122;11.538;2023-05-27T11:22:07;7.93;;;5.70;;
47519;SDS011;33252;48.122;11.538;2023-05-27T11:24:35;11.23;;;5.70;;
47519;SDS011;33252;48.122;11.538;2023-05-27T11:27:07;9.77;;;5.28;;
47519;SDS011;33252;48.122;11.538;2023-05-27T11:29:35;9.80;;;5.75;;
47519;SDS011;33252;48.122;11.538;2023-05-27T11:32:04;11.45;;;5.85;;
47519;SDS011;33252;48.122;11.538;2023-05-27T11:34:33;13.05;;;6.53;;
47519;SDS011;33252;48.122;11.538;2023-05-27T11:37:03;9.27;;;5.75;;
47519;SDS011;33252;48.122;11.538;2023-05-27T11:39:29;13.00;;;5.95;;
47519;SDS011;33252;48.122;11.538;2023-05-27T11:41:55;9.57;;;5.47;;
47519;SDS011;33252;48.122;11.538;2023-05-27T11:44:22;9.60;;;5.10;;
47519;SDS011;33252;48.122;11.538;2023-05-27T11:46:49;9.07;;;4.97;;
47519;SDS011;33252;48.122;11.538;2023-05-27T11:49:16;10.77;;;5.47;;
47519;SDS011;33252;48.122;11.538;2023-05-27T11:51:44;7.03;;;5.38;;
47519;SDS011;33252;48.122;11.538;2023-05-27T11:54:21;9.77;;;5.90;;
47519;SDS011;33252;48.122;11.538;2023-05-27T11:56:52;9.45;;;5.55;;
47519;SDS011;33252;48.122;11.538;2023-05-27T11:59:19;8.27;;;5.15;;
47519;SDS011;33252;48.122;11.538;2023-05-27T12:01:46;9.07;;;4.80;;
47519;SDS011;33252;48.122;11.538;2023-05-27T12:04:11;11.43;;;5.18;;
47519;SDS011;33252;48.122;11.538;2023-05-27T12:06:37;7.65;;;4.63;;
47519;SDS011;33252;48.122;11.538;2023-05-27T12:09:06;8.27;;;4.97;;
47519;SDS011;33252;48.122;11.538;2023-05-27T12:11:35;10.65;;;5.15;;
47519;SDS011;33252;48.122;11.538;2023-05-27T12:14:02;7.78;;;4.97;;
47519;SDS011;33252;48.122;11.538;2023-05-27T12:16:28;7.60;;;4.38;;
47519;SDS011;33252;48.122;11.538;2023-05-27T12:18:54;8.02;;;4.88;;
47519;SDS011;33252;48.122;11.538;2023-05-27T12:21:20;8.13;;;4.45;;
47519;SDS011;33252;48.122;11.538;2023-05-27T12:23:46;7.13;;;4.20;;
47519;SDS011;33252;48.122;11.538;2023-05-27T12:26:12;10.68;;;4.97;;
47519;SDS011;33252;48.122;11.538;2023-05-27T12:28:39;9.57;;;4.68;;
47519;SDS011;33252;48.122;11.538;2023-05-27T12:31:05;8.50;;;4.63;;
47519;SDS011;33252;48.122;11.538;2023-05-27T12:33:31;6.88;;;3.92;;
47519;SDS011;33252;48.122;11.538;2023-05-27T12:35:57;6.43;;;4.30;;
47519;SDS011;33252;48.122;11.538;2023-05-27T12:38:23;5.45;;;4.18;;
47519;SDS011;33252;48.122;11.538;2023-05-27T12:40:49;9.77;;;4.68;;
47519;SDS011;33252;48.122;11.538;2023-05-27T12:43:15;9.68;;;4.38;;
47519;SDS011;33252;48.122;11.538;2023-05-27T12:45:41;9.55;;;6.07;;
47519;SDS011;33252;48.122;11.538;2023-05-27T12:48:07;9.63;;;4.63;;
47519;SDS011;33252;48.122;11.538;2023-05-27T12:50:33;8.43;;;3.97;;
47519;SDS011;33252;48.122;11.538;2023-05-27T12:52:58;6.13;;;4.00;;
47519;SDS011;33252;48.122;11.538;2023-05-27T12:55:24;5.22;;;3.40;;
47519;SDS011;33252;48.122;11.538;2023-05-27T12:57:51;6.75;;;4.20;;
47519;SDS011;33252;48.122;11.538;2023-05-27T13:00:19;9.50;;;4.15;;
47519;SDS011;33252;48.122;11.538;2023-05-27T13:02:45;7.40;;;4.38;;
47519;SDS011;33252;48.122;11.538;2023-05-27T13:05:14;8.48;;;4.45;;
47519;SDS011;33252;48.122;11.538;2023-05-27T13:07:52;8.07;;;4.88;;
47519;SDS011;33252;48.122;11.538;2023-05-27T13:10:25;7.85;;;4.65;;
47519;SDS011;33252;48.122;11.538;2023-05-27T13:12:51;6.03;;;3.90;;
47519;SDS011;33252;48.122;11.538;2023-05-27T13:15:17;7.97;;;4.30;;
47519;SDS011;33252;48.122;11.538;2023-05-27T13:17:44;10.52;;;4.60;;
47519;SDS011;33252;48.122;11.538;2023-05-27T13:20:10;6.30;;;5.00;;
47519;SDS011;33252;48.122;11.538;2023-05-27T13:22:37;6.60;;;4.45;;
47519;SDS011;33252;48.122;11.538;2023-05-27T13:25:03;10.75;;;4.60;;
47519;SDS011;33252;48.122;11.538;2023-05-27T13:27:29;9.85;;;5.43;;
47519;SDS011;33252;48.122;11.538;2023-05-27T13:29:56;7.47;;;4.60;;
47519;SDS011;33252;48.122;11.538;2023-05-27T13:32:21;10.30;;;4.30;;
47519;SDS011;33252;48.122;11.538;2023-05-27T13:34:47;10.18;;;5.03;;
47519;SDS011;33252;48.122;11.538;2023-05-27T13:37:13;7.40;;;4.30;;
47519;SDS011;33252;48.122;11.538;2023-05-27T13:39:39;8.48;;;4.18;;
47519;SDS011;33252;48.122;11.538;2023-05-27T13:42:09;6.75;;;3.60;;
47519;SDS011;33252;48.122;11.538;2023-05-27T13:44:35;8.38;;;4.72;;
47519;SDS011;33252;48.122;11.538;2023-05-27T13:47:01;7.30;;;4.00;;
47519;SDS011;33252;48.122;11.538;2023-05-27T13:49:26;8.50;;;4.20;;
47519;SDS011;33252;48.122;11.538;2023-05-27T13:51:52;7.45;;;3.97;;
47519;SDS011;33252;48.122;11.538;2023-05-27T13:54:18;9.50;;;3.90;;
47519;SDS011;33252;48.122;11.538;2023-05-27T13:56:44;8.07;;;4.20;;
47519;SDS011;33252;48.122;11.538;2023-05-27T13:59:10;6.97;;;3.55;;
47519;SDS011;33252;48.122;11.538;2023-05-27T14:01:37;7.20;;;4.03;;
47519;SDS011;33252;48.122;11.538;2023-05-27T14:04:03;9.75;;;4.72;;
47519;SDS011;33252;48.122;11.538;2023-05-27T14:06:29;6.82;;;3.83;;
47519;SDS011;33252;48.122;11.538;2023-05-27T14:08:56;6.78;;;4.07;;
47519;SDS011;33252;48.122;11.538;2023-05-27T14:11:21;9.48;;;4.00;;
47519;SDS011;33252;48.122;11.538;2023-05-27T14:13:47;6.60;;;3.95;;
47519;SDS011;33252;48.122;11.538;2023-05-27T14:16:14;7.72;;;3.70;;
47519;SDS011;33252;48.122;11.538;2023-05-27T14:18:39;6.72;;;3.70;;
47519;SDS011;33252;48.122;11.538;2023-05-27T14:21:06;8.60;;;4.25;;
47519;SDS011;33252;48.122;11.538;2023-05-27T14:23:32;8.57;;;4.18;;
47519;SDS011;33252;48.122;11.538;2023-05-27T14:25:58;8.65;;;3.83;;
47519;SDS011;33252;48.122;11.538;2023-05-27T14:28:24;6.70;;;4.68;;
47519;SDS011;33252;48.122;11.538;2023-05-27T14:30:50;7.07;;;4.13;;
47519;SDS011;33252;48.122;11.538;2023-05-27T14:33:15;8.88;;;3.40;;
47519;SDS011;33252;48.122;11.538;2023-05-27T14:35:41;7.13;;;4.90;;
47519;SDS011;33252;48.122;11.538;2023-05-27T14:38:09;9.43;;;3.78;;